Terminal Aerodrome Forecast
Issued by NWS

Home | Current Version | Previous Version | Text Only | Print | Product List | Glossary On
Versions: 1 2 3 4 5 6 7 8 9
907
FTUS43 KGRR 251746
TAFMKG
TAF
KMKG 251746Z 2518/2618 16011KT P6SM SCT040 SCT250
     FM252300 14009KT P6SM BKN040 BKN120
     FM260700 16013G23KT P6SM BKN120
     FM261300 17014G24KT P6SM BKN050=

USA.gov is the U.S. government's official web portal to all federal, state and local government web resources and services.